sensor_id;sensor_type;location;lat;lon;timestamp;P1;durP1;ratioP1;P2;durP2;ratioP2
1765;SDS011;880;52.452;8.656;2023-08-30T00:01:11;5.72;;;5.22;;
1765;SDS011;880;52.452;8.656;2023-08-30T00:03:38;5.57;;;5.18;;
1765;SDS011;880;52.452;8.656;2023-08-30T00:06:06;5.72;;;5.32;;
1765;SDS011;880;52.452;8.656;2023-08-30T00:08:33;5.72;;;5.32;;
1765;SDS011;880;52.452;8.656;2023-08-30T00:11:01;7.18;;;6.68;;
1765;SDS011;880;52.452;8.656;2023-08-30T00:13:29;5.95;;;5.45;;
1765;SDS011;880;52.452;8.656;2023-08-30T00:15:58;5.30;;;4.93;;
1765;SDS011;880;52.452;8.656;2023-08-30T00:18:26;6.53;;;5.93;;
1765;SDS011;880;52.452;8.656;2023-08-30T00:20:53;7.28;;;6.57;;
1765;SDS011;880;52.452;8.656;2023-08-30T00:23:20;6.05;;;5.55;;
1765;SDS011;880;52.452;8.656;2023-08-30T00:25:47;6.53;;;6.03;;
1765;SDS011;880;52.452;8.656;2023-08-30T00:28:15;5.60;;;5.15;;
1765;SDS011;880;52.452;8.656;2023-08-30T00:30:42;9.07;;;5.53;;
1765;SDS011;880;52.452;8.656;2023-08-30T00:33:09;5.75;;;5.22;;
1765;SDS011;880;52.452;8.656;2023-08-30T00:35:36;5.43;;;4.93;;
1765;SDS011;880;52.452;8.656;2023-08-30T00:38:03;6.28;;;5.65;;
1765;SDS011;880;52.452;8.656;2023-08-30T00:40:37;7.50;;;6.90;;
1765;SDS011;880;52.452;8.656;2023-08-30T00:43:06;6.93;;;5.57;;
1765;SDS011;880;52.452;8.656;2023-08-30T00:45:35;6.25;;;5.75;;
1765;SDS011;880;52.452;8.656;2023-08-30T00:48:06;6.05;;;5.45;;
1765;SDS011;880;52.452;8.656;2023-08-30T00:50:34;6.38;;;5.78;;
1765;SDS011;880;52.452;8.656;2023-08-30T00:53:02;6.30;;;5.68;;
1765;SDS011;880;52.452;8.656;2023-08-30T00:55:33;6.35;;;5.68;;
1765;SDS011;880;52.452;8.656;2023-08-30T00:58:01;6.32;;;5.72;;
1765;SDS011;880;52.452;8.656;2023-08-30T01:00:29;6.22;;;5.72;;
1765;SDS011;880;52.452;8.656;2023-08-30T01:02:57;5.93;;;5.43;;
1765;SDS011;880;52.452;8.656;2023-08-30T01:05:26;7.25;;;6.63;;
1765;SDS011;880;52.452;8.656;2023-08-30T01:07:54;7.28;;;6.45;;
1765;SDS011;880;52.452;8.656;2023-08-30T01:10:24;7.43;;;6.43;;
1765;SDS011;880;52.452;8.656;2023-08-30T01:13:20;6.57;;;5.78;;
1765;SDS011;880;52.452;8.656;2023-08-30T01:15:48;6.75;;;6.15;;
1765;SDS011;880;52.452;8.656;2023-08-30T01:18:20;8.23;;;7.63;;
1765;SDS011;880;52.452;8.656;2023-08-30T01:20:52;7.38;;;6.50;;
1765;SDS011;880;52.452;8.656;2023-08-30T01:23:34;7.82;;;6.47;;
1765;SDS011;880;52.452;8.656;2023-08-30T01:26:24;7.30;;;6.25;;
1765;SDS011;880;52.452;8.656;2023-08-30T01:29:11;6.68;;;6.07;;
1765;SDS011;880;52.452;8.656;2023-08-30T01:31:40;7.22;;;6.25;;
1765;SDS011;880;52.452;8.656;2023-08-30T01:34:08;7.95;;;7.00;;
1765;SDS011;880;52.452;8.656;2023-08-30T01:36:36;6.63;;;5.93;;
1765;SDS011;880;52.452;8.656;2023-08-30T01:39:03;6.65;;;6.05;;
1765;SDS011;880;52.452;8.656;2023-08-30T01:41:31;7.05;;;6.28;;
1765;SDS011;880;52.452;8.656;2023-08-30T01:44:01;7.95;;;6.55;;
1765;SDS011;880;52.452;8.656;2023-08-30T01:46:32;7.18;;;6.57;;
1765;SDS011;880;52.452;8.656;2023-08-30T01:49:01;7.22;;;6.57;;
1765;SDS011;880;52.452;8.656;2023-08-30T01:51:30;7.47;;;6.40;;
1765;SDS011;880;52.452;8.656;2023-08-30T01:53:58;9.32;;;6.82;;
1765;SDS011;880;52.452;8.656;2023-08-30T01:56:26;7.00;;;6.20;;
1765;SDS011;880;52.452;8.656;2023-08-30T01:58:53;7.03;;;6.35;;
1765;SDS011;880;52.452;8.656;2023-08-30T02:01:20;7.45;;;6.72;;
1765;SDS011;880;52.452;8.656;2023-08-30T02:03:47;8.15;;;6.82;;
1765;SDS011;880;52.452;8.656;2023-08-30T02:06:27;8.10;;;7.00;;
1765;SDS011;880;52.452;8.656;2023-08-30T02:09:20;9.38;;;7.00;;
1765;SDS011;880;52.452;8.656;2023-08-30T02:11:55;7.80;;;7.00;;
1765;SDS011;880;52.452;8.656;2023-08-30T02:14:26;8.30;;;7.45;;
1765;SDS011;880;52.452;8.656;2023-08-30T02:16:54;8.43;;;6.47;;
1765;SDS011;880;52.452;8.656;2023-08-30T02:19:22;9.50;;;8.13;;
1765;SDS011;880;52.452;8.656;2023-08-30T02:21:50;8.15;;;7.25;;
1765;SDS011;880;52.452;8.656;2023-08-30T02:24:17;8.98;;;7.43;;
1765;SDS011;880;52.452;8.656;2023-08-30T02:26:44;8.73;;;7.93;;
1765;SDS011;880;52.452;8.656;2023-08-30T02:29:12;9.23;;;7.82;;
1765;SDS011;880;52.452;8.656;2023-08-30T02:31:39;8.32;;;7.40;;
1765;SDS011;880;52.452;8.656;2023-08-30T02:34:06;8.45;;;7.40;;
1765;SDS011;880;52.452;8.656;2023-08-30T02:36:35;8.27;;;7.18;;
1765;SDS011;880;52.452;8.656;2023-08-30T02:39:03;8.02;;;7.28;;
1765;SDS011;880;52.452;8.656;2023-08-30T02:41:31;8.57;;;7.53;;
1765;SDS011;880;52.452;8.656;2023-08-30T02:43:58;8.38;;;7.57;;
1765;SDS011;880;52.452;8.656;2023-08-30T02:46:25;7.95;;;7.15;;
1765;SDS011;880;52.452;8.656;2023-08-30T02:48:52;8.38;;;6.93;;
1765;SDS011;880;52.452;8.656;2023-08-30T02:51:19;9.90;;;7.95;;
1765;SDS011;880;52.452;8.656;2023-08-30T02:53:46;7.85;;;6.90;;
1765;SDS011;880;52.452;8.656;2023-08-30T02:56:13;8.35;;;7.55;;
1765;SDS011;880;52.452;8.656;2023-08-30T02:58:40;10.07;;;8.52;;
1765;SDS011;880;52.452;8.656;2023-08-30T03:01:07;9.68;;;8.45;;
1765;SDS011;880;52.452;8.656;2023-08-30T03:03:35;8.57;;;7.47;;
1765;SDS011;880;52.452;8.656;2023-08-30T03:06:02;9.20;;;7.85;;
1765;SDS011;880;52.452;8.656;2023-08-30T03:08:29;10.57;;;7.22;;
1765;SDS011;880;52.452;8.656;2023-08-30T03:11:13;9.43;;;7.88;;
1765;SDS011;880;52.452;8.656;2023-08-30T03:13:46;9.85;;;8.85;;
1765;SDS011;880;52.452;8.656;2023-08-30T03:16:13;10.00;;;8.13;;
1765;SDS011;880;52.452;8.656;2023-08-30T03:18:42;10.43;;;8.00;;
1765;SDS011;880;52.452;8.656;2023-08-30T03:21:10;11.23;;;8.32;;
1765;SDS011;880;52.452;8.656;2023-08-30T03:23:38;9.18;;;7.88;;
1765;SDS011;880;52.452;8.656;2023-08-30T03:26:08;12.82;;;8.70;;
1765;SDS011;880;52.452;8.656;2023-08-30T03:28:40;11.75;;;9.38;;
1765;SDS011;880;52.452;8.656;2023-08-30T03:31:14;13.50;;;8.38;;
1765;SDS011;880;52.452;8.656;2023-08-30T03:33:49;13.57;;;8.90;;
1765;SDS011;880;52.452;8.656;2023-08-30T03:36:16;11.40;;;8.10;;
1765;SDS011;880;52.452;8.656;2023-08-30T03:38:45;12.43;;;8.93;;
1765;SDS011;880;52.452;8.656;2023-08-30T03:41:12;10.85;;;8.50;;
1765;SDS011;880;52.452;8.656;2023-08-30T03:43:42;11.00;;;8.38;;
1765;SDS011;880;52.452;8.656;2023-08-30T03:46:09;11.75;;;8.63;;
1765;SDS011;880;52.452;8.656;2023-08-30T03:48:38;12.63;;;9.32;;
1765;SDS011;880;52.452;8.656;2023-08-30T03:51:05;13.32;;;8.90;;
1765;SDS011;880;52.452;8.656;2023-08-30T03:53:32;11.90;;;9.40;;
1765;SDS011;880;52.452;8.656;2023-08-30T03:55:59;15.38;;;9.20;;
1765;SDS011;880;52.452;8.656;2023-08-30T03:58:26;14.77;;;10.75;;
1765;SDS011;880;52.452;8.656;2023-08-30T04:00:53;14.73;;;10.57;;
1765;SDS011;880;52.452;8.656;2023-08-30T04:03:20;14.13;;;10.00;;
1765;SDS011;880;52.452;8.656;2023-08-30T04:05:47;12.98;;;9.30;;
1765;SDS011;880;52.452;8.656;2023-08-30T04:08:21;14.45;;;10.48;;
1765;SDS011;880;52.452;8.656;2023-08-30T04:10:51;14.63;;;10.77;;
1765;SDS011;880;52.452;8.656;2023-08-30T04:13:19;14.30;;;9.88;;
1765;SDS011;880;52.452;8.656;2023-08-30T04:15:47;13.38;;;10.25;;
1765;SDS011;880;52.452;8.656;2023-08-30T04:18:14;17.65;;;11.95;;
1765;SDS011;880;52.452;8.656;2023-08-30T04:20:45;14.93;;;11.25;;
1765;SDS011;880;52.452;8.656;2023-08-30T04:23:13;12.60;;;10.98;;
1765;SDS011;880;52.452;8.656;2023-08-30T04:25:41;18.33;;;12.40;;
1765;SDS011;880;52.452;8.656;2023-08-30T04:28:09;15.75;;;12.38;;
1765;SDS011;880;52.452;8.656;2023-08-30T04:30:37;16.23;;;11.48;;
1765;SDS011;880;52.452;8.656;2023-08-30T04:33:05;14.98;;;10.70;;
1765;SDS011;880;52.452;8.656;2023-08-30T04:35:32;15.73;;;12.15;;
1765;SDS011;880;52.452;8.656;2023-08-30T04:37:59;16.05;;;12.27;;
1765;SDS011;880;52.452;8.656;2023-08-30T04:40:27;14.95;;;11.30;;
1765;SDS011;880;52.452;8.656;2023-08-30T04:42:55;14.77;;;11.73;;
1765;SDS011;880;52.452;8.656;2023-08-30T04:45:25;15.27;;;11.48;;
1765;SDS011;880;52.452;8.656;2023-08-30T04:47:51;14.63;;;11.90;;
1765;SDS011;880;52.452;8.656;2023-08-30T04:50:19;12.18;;;10.85;;
1765;SDS011;880;52.452;8.656;2023-08-30T04:52:46;15.32;;;11.90;;
1765;SDS011;880;52.452;8.656;2023-08-30T04:55:14;13.20;;;11.20;;
1765;SDS011;880;52.452;8.656;2023-08-30T04:57:41;17.42;;;12.02;;
1765;SDS011;880;52.452;8.656;2023-08-30T05:00:13;14.25;;;11.18;;
1765;SDS011;880;52.452;8.656;2023-08-30T05:02:40;16.52;;;10.82;;
1765;SDS011;880;52.452;8.656;2023-08-30T05:05:10;17.92;;;11.93;;
1765;SDS011;880;52.452;8.656;2023-08-30T05:07:37;17.33;;;11.02;;
1765;SDS011;880;52.452;8.656;2023-08-30T05:10:05;16.67;;;12.02;;
1765;SDS011;880;52.452;8.656;2023-08-30T05:12:33;18.73;;;11.77;;
1765;SDS011;880;52.452;8.656;2023-08-30T05:15:01;18.77;;;10.63;;
1765;SDS011;880;52.452;8.656;2023-08-30T05:17:30;16.55;;;11.88;;
1765;SDS011;880;52.452;8.656;2023-08-30T05:19:58;16.30;;;11.80;;
1765;SDS011;880;52.452;8.656;2023-08-30T05:22:25;16.42;;;12.00;;
1765;SDS011;880;52.452;8.656;2023-08-30T05:24:51;14.43;;;11.02;;
1765;SDS011;880;52.452;8.656;2023-08-30T05:27:19;18.30;;;12.48;;
1765;SDS011;880;52.452;8.656;2023-08-30T05:29:47;15.30;;;12.25;;
1765;SDS011;880;52.452;8.656;2023-08-30T05:32:14;16.33;;;11.88;;
1765;SDS011;880;52.452;8.656;2023-08-30T05:35:00;15.82;;;12.40;;
1765;SDS011;880;52.452;8.656;2023-08-30T05:37:54;15.15;;;11.20;;
1765;SDS011;880;52.452;8.656;2023-08-30T05:40:37;17.73;;;12.55;;
1765;SDS011;880;52.452;8.656;2023-08-30T05:43:08;15.65;;;11.63;;
1765;SDS011;880;52.452;8.656;2023-08-30T05:45:35;13.90;;;11.82;;
1765;SDS011;880;52.452;8.656;2023-08-30T05:48:03;16.75;;;12.50;;
1765;SDS011;880;52.452;8.656;2023-08-30T05:50:32;14.40;;;11.95;;
1765;SDS011;880;52.452;8.656;2023-08-30T05:52:58;18.10;;;12.93;;
1765;SDS011;880;52.452;8.656;2023-08-30T05:55:26;14.60;;;11.68;;
1765;SDS011;880;52.452;8.656;2023-08-30T05:57:53;15.20;;;11.90;;
1765;SDS011;880;52.452;8.656;2023-08-30T06:00:20;18.17;;;13.15;;
1765;SDS011;880;52.452;8.656;2023-08-30T06:02:47;16.05;;;12.13;;
1765;SDS011;880;52.452;8.656;2023-08-30T06:05:14;16.65;;;12.45;;
1765;SDS011;880;52.452;8.656;2023-08-30T06:07:41;14.38;;;12.02;;
1765;SDS011;880;52.452;8.656;2023-08-30T06:10:08;15.73;;;12.05;;
1765;SDS011;880;52.452;8.656;2023-08-30T06:12:35;18.48;;;12.65;;
1765;SDS011;880;52.452;8.656;2023-08-30T06:15:02;18.58;;;12.77;;
1765;SDS011;880;52.452;8.656;2023-08-30T06:17:30;19.77;;;12.85;;
1765;SDS011;880;52.452;8.656;2023-08-30T06:19:57;14.88;;;12.15;;
1765;SDS011;880;52.452;8.656;2023-08-30T06:22:24;15.75;;;12.07;;
1765;SDS011;880;52.452;8.656;2023-08-30T06:24:51;15.00;;;12.63;;
1765;SDS011;880;52.452;8.656;2023-08-30T06:27:18;15.10;;;12.27;;
1765;SDS011;880;52.452;8.656;2023-08-30T06:29:45;14.95;;;11.95;;
1765;SDS011;880;52.452;8.656;2023-08-30T06:32:12;15.07;;;12.35;;
1765;SDS011;880;52.452;8.656;2023-08-30T06:34:39;16.83;;;12.15;;
1765;SDS011;880;52.452;8.656;2023-08-30T06:37:06;14.73;;;11.05;;
1765;SDS011;880;52.452;8.656;2023-08-30T06:39:34;12.27;;;10.57;;
1765;SDS011;880;52.452;8.656;2023-08-30T06:42:03;16.15;;;10.00;;
1765;SDS011;880;52.452;8.656;2023-08-30T06:44:30;13.20;;;11.13;;
1765;SDS011;880;52.452;8.656;2023-08-30T06:46:57;12.27;;;10.13;;
1765;SDS011;880;52.452;8.656;2023-08-30T06:49:28;18.80;;;10.35;;
1765;SDS011;880;52.452;8.656;2023-08-30T06:51:57;13.85;;;10.38;;
1765;SDS011;880;52.452;8.656;2023-08-30T06:54:24;11.38;;;9.60;;
1765;SDS011;880;52.452;8.656;2023-08-30T06:56:59;15.30;;;11.25;;
1765;SDS011;880;52.452;8.656;2023-08-30T06:59:27;12.45;;;9.85;;
1765;SDS011;880;52.452;8.656;2023-08-30T07:01:54;13.88;;;11.20;;
1765;SDS011;880;52.452;8.656;2023-08-30T07:04:21;11.98;;;9.93;;
1765;SDS011;880;52.452;8.656;2023-08-30T07:06:48;10.68;;;9.57;;
1765;SDS011;880;52.452;8.656;2023-08-30T07:09:15;13.27;;;11.02;;
1765;SDS011;880;52.452;8.656;2023-08-30T07:11:43;11.65;;;10.52;;
1765;SDS011;880;52.452;8.656;2023-08-30T07:14:11;11.60;;;9.75;;
1765;SDS011;880;52.452;8.656;2023-08-30T07:16:41;10.25;;;9.18;;
1765;SDS011;880;52.452;8.656;2023-08-30T07:19:08;12.43;;;9.73;;
1765;SDS011;880;52.452;8.656;2023-08-30T07:21:36;10.52;;;9.30;;
1765;SDS011;880;52.452;8.656;2023-08-30T07:24:05;12.93;;;9.38;;
1765;SDS011;880;52.452;8.656;2023-08-30T07:26:33;11.10;;;9.32;;
1765;SDS011;880;52.452;8.656;2023-08-30T07:29:02;11.80;;;10.52;;
1765;SDS011;880;52.452;8.656;2023-08-30T07:31:31;10.10;;;9.02;;
1765;SDS011;880;52.452;8.656;2023-08-30T07:33:59;11.18;;;9.50;;
1765;SDS011;880;52.452;8.656;2023-08-30T07:36:27;11.18;;;9.68;;
1765;SDS011;880;52.452;8.656;2023-08-30T07:39:12;13.27;;;10.35;;
1765;SDS011;880;52.452;8.656;2023-08-30T07:41:39;10.50;;;9.32;;
1765;SDS011;880;52.452;8.656;2023-08-30T07:44:06;10.52;;;9.43;;
1765;SDS011;880;52.452;8.656;2023-08-30T07:46:33;12.63;;;11.32;;
1765;SDS011;880;52.452;8.656;2023-08-30T07:49:00;12.02;;;10.48;;
1765;SDS011;880;52.452;8.656;2023-08-30T07:51:27;10.90;;;9.77;;
1765;SDS011;880;52.452;8.656;2023-08-30T07:53:54;14.02;;;10.73;;
1765;SDS011;880;52.452;8.656;2023-08-30T07:56:21;10.70;;;9.48;;
1765;SDS011;880;52.452;8.656;2023-08-30T07:58:48;10.98;;;9.88;;
1765;SDS011;880;52.452;8.656;2023-08-30T08:01:15;13.27;;;10.13;;
1765;SDS011;880;52.452;8.656;2023-08-30T08:03:43;12.02;;;9.57;;
1765;SDS011;880;52.452;8.656;2023-08-30T08:06:26;12.43;;;9.57;;
1765;SDS011;880;52.452;8.656;2023-08-30T08:08:53;10.32;;;8.90;;
1765;SDS011;880;52.452;8.656;2023-08-30T08:11:20;7.82;;;7.15;;
1765;SDS011;880;52.452;8.656;2023-08-30T08:13:47;11.77;;;10.68;;
1765;SDS011;880;52.452;8.656;2023-08-30T08:16:14;9.95;;;9.05;;
1765;SDS011;880;52.452;8.656;2023-08-30T08:18:42;9.60;;;8.80;;
1765;SDS011;880;52.452;8.656;2023-08-30T08:21:09;10.60;;;9.50;;
1765;SDS011;880;52.452;8.656;2023-08-30T08:23:36;10.80;;;8.93;;
1765;SDS011;880;52.452;8.656;2023-08-30T08:26:03;9.93;;;9.02;;
1765;SDS011;880;52.452;8.656;2023-08-30T08:28:30;9.68;;;8.68;;
1765;SDS011;880;52.452;8.656;2023-08-30T08:30:57;8.63;;;7.82;;
1765;SDS011;880;52.452;8.656;2023-08-30T08:33:24;8.85;;;8.15;;
1765;SDS011;880;52.452;8.656;2023-08-30T08:35:51;8.75;;;7.95;;
1765;SDS011;880;52.452;8.656;2023-08-30T08:38:18;7.97;;;7.15;;
1765;SDS011;880;52.452;8.656;2023-08-30T08:40:46;9.43;;;8.75;;
1765;SDS011;880;52.452;8.656;2023-08-30T08:43:13;8.60;;;8.00;;
1765;SDS011;880;52.452;8.656;2023-08-30T08:45:42;8.85;;;8.15;;
1765;SDS011;880;52.452;8.656;2023-08-30T08:48:10;8.25;;;7.45;;
1765;SDS011;880;52.452;8.656;2023-08-30T08:50:39;8.32;;;7.55;;
1765;SDS011;880;52.452;8.656;2023-08-30T08:53:07;8.77;;;7.90;;
1765;SDS011;880;52.452;8.656;2023-08-30T08:55:35;8.80;;;7.97;;
1765;SDS011;880;52.452;8.656;2023-08-30T08:58:02;8.75;;;8.05;;
1765;SDS011;880;52.452;8.656;2023-08-30T09:00:30;8.43;;;7.30;;
1765;SDS011;880;52.452;8.656;2023-08-30T09:02:58;7.75;;;7.15;;
1765;SDS011;880;52.452;8.656;2023-08-30T09:05:27;7.22;;;6.53;;
1765;SDS011;880;52.452;8.656;2023-08-30T09:07:55;8.82;;;7.97;;
1765;SDS011;880;52.452;8.656;2023-08-30T09:10:23;8.95;;;8.10;;
1765;SDS011;880;52.452;8.656;2023-08-30T09:12:50;9.52;;;8.73;;
1765;SDS011;880;52.452;8.656;2023-08-30T09:15:17;10.10;;;8.73;;
1765;SDS011;880;52.452;8.656;2023-08-30T09:17:47;9.60;;;8.70;;
1765;SDS011;880;52.452;8.656;2023-08-30T09:20:14;11.27;;;10.13;;
1765;SDS011;880;52.452;8.656;2023-08-30T09:22:42;8.10;;;7.35;;
1765;SDS011;880;52.452;8.656;2023-08-30T09:25:10;10.35;;;9.32;;
1765;SDS011;880;52.452;8.656;2023-08-30T09:27:59;8.93;;;8.07;;
1765;SDS011;880;52.452;8.656;2023-08-30T09:30:26;10.32;;;8.57;;
1765;SDS011;880;52.452;8.656;2023-08-30T09:32:53;10.05;;;8.88;;
1765;SDS011;880;52.452;8.656;2023-08-30T09:35:22;9.93;;;8.98;;
1765;SDS011;880;52.452;8.656;2023-08-30T09:37:49;9.65;;;8.85;;
1765;SDS011;880;52.452;8.656;2023-08-30T09:40:19;10.02;;;9.10;;
1765;SDS011;880;52.452;8.656;2023-08-30T09:42:46;10.98;;;9.88;;
1765;SDS011;880;52.452;8.656;2023-08-30T09:45:34;9.52;;;8.73;;
1765;SDS011;880;52.452;8.656;2023-08-30T09:48:01;9.10;;;8.27;;
1765;SDS011;880;52.452;8.656;2023-08-30T09:50:29;12.93;;;11.88;;
1765;SDS011;880;52.452;8.656;2023-08-30T09:53:06;9.55;;;8.68;;
1765;SDS011;880;52.452;8.656;2023-08-30T09:55:36;9.93;;;8.90;;
1765;SDS011;880;52.452;8.656;2023-08-30T09:58:03;9.55;;;8.65;;
1765;SDS011;880;52.452;8.656;2023-08-30T10:00:31;9.18;;;7.30;;
1765;SDS011;880;52.452;8.656;2023-08-30T10:05:48;9.63;;;8.82;;
1765;SDS011;880;52.452;8.656;2023-08-30T10:08:15;10.38;;;9.57;;
1765;SDS011;880;52.452;8.656;2023-08-30T10:10:43;9.60;;;8.82;;
1765;SDS011;880;52.452;8.656;2023-08-30T10:13:10;10.00;;;9.05;;
1765;SDS011;880;52.452;8.656;2023-08-30T10:15:43;9.65;;;8.85;;
1765;SDS011;880;52.452;8.656;2023-08-30T10:18:15;11.73;;;10.63;;
1765;SDS011;880;52.452;8.656;2023-08-30T10:20:47;12.05;;;10.88;;
1765;SDS011;880;52.452;8.656;2023-08-30T10:23:14;12.02;;;9.75;;
1765;SDS011;880;52.452;8.656;2023-08-30T10:25:44;11.73;;;10.57;;
1765;SDS011;880;52.452;8.656;2023-08-30T10:28:15;11.15;;;10.18;;
1765;SDS011;880;52.452;8.656;2023-08-30T10:30:43;12.63;;;11.43;;
1765;SDS011;880;52.452;8.656;2023-08-30T10:33:13;10.27;;;9.48;;
1765;SDS011;880;52.452;8.656;2023-08-30T10:35:49;10.68;;;9.68;;
1765;SDS011;880;52.452;8.656;2023-08-30T10:38:24;11.18;;;10.05;;
1765;SDS011;880;52.452;8.656;2023-08-30T10:40:53;9.82;;;8.73;;
1765;SDS011;880;52.452;8.656;2023-08-30T10:43:28;10.43;;;9.63;;
1765;SDS011;880;52.452;8.656;2023-08-30T10:45:59;9.98;;;9.00;;
1765;SDS011;880;52.452;8.656;2023-08-30T10:48:34;9.27;;;8.30;;
1765;SDS011;880;52.452;8.656;2023-08-30T10:51:02;9.32;;;8.52;;
1765;SDS011;880;52.452;8.656;2023-08-30T10:53:33;9.85;;;8.90;;
1765;SDS011;880;52.452;8.656;2023-08-30T10:56:07;9.23;;;8.10;;
1765;SDS011;880;52.452;8.656;2023-08-30T10:58:41;8.82;;;7.93;;
1765;SDS011;880;52.452;8.656;2023-08-30T11:01:10;10.00;;;8.07;;
1765;SDS011;880;52.452;8.656;2023-08-30T11:03:41;10.02;;;9.13;;
1765;SDS011;880;52.452;8.656;2023-08-30T11:06:12;11.05;;;9.95;;
1765;SDS011;880;52.452;8.656;2023-08-30T11:08:41;10.57;;;9.57;;
1765;SDS011;880;52.452;8.656;2023-08-30T11:11:08;10.38;;;9.02;;
1765;SDS011;880;52.452;8.656;2023-08-30T11:13:37;10.10;;;9.10;;
1765;SDS011;880;52.452;8.656;2023-08-30T11:16:04;9.60;;;8.60;;
1765;SDS011;880;52.452;8.656;2023-08-30T11:18:36;10.38;;;9.52;;
1765;SDS011;880;52.452;8.656;2023-08-30T11:21:05;8.95;;;8.15;;
1765;SDS011;880;52.452;8.656;2023-08-30T11:23:32;9.82;;;8.98;;
1765;SDS011;880;52.452;8.656;2023-08-30T11:26:00;9.48;;;8.57;;
1765;SDS011;880;52.452;8.656;2023-08-30T11:28:30;10.80;;;8.98;;
1765;SDS011;880;52.452;8.656;2023-08-30T11:30:57;8.55;;;7.90;;
1765;SDS011;880;52.452;8.656;2023-08-30T11:33:24;9.27;;;8.40;;
1765;SDS011;880;52.452;8.656;2023-08-30T11:35:51;8.57;;;7.97;;
1765;SDS011;880;52.452;8.656;2023-08-30T11:40:48;8.02;;;7.32;;
1765;SDS011;880;52.452;8.656;2023-08-30T11:43:16;10.95;;;8.40;;
1765;SDS011;880;52.452;8.656;2023-08-30T11:45:43;9.90;;;9.00;;
1765;SDS011;880;52.452;8.656;2023-08-30T11:48:10;8.73;;;8.13;;
1765;SDS011;880;52.452;8.656;2023-08-30T11:50:38;9.20;;;8.45;;
1765;SDS011;880;52.452;8.656;2023-08-30T11:55:41;8.10;;;7.40;;
1765;SDS011;880;52.452;8.656;2023-08-30T11:58:08;10.25;;;9.45;;
1765;SDS011;880;52.452;8.656;2023-08-30T12:00:35;9.82;;;9.05;;
1765;SDS011;880;52.452;8.656;2023-08-30T12:03:05;11.43;;;9.40;;
1765;SDS011;880;52.452;8.656;2023-08-30T12:08:01;10.75;;;9.75;;
1765;SDS011;880;52.452;8.656;2023-08-30T12:10:29;10.55;;;9.45;;
1765;SDS011;880;52.452;8.656;2023-08-30T12:12:58;10.35;;;9.05;;
1765;SDS011;880;52.452;8.656;2023-08-30T12:15:25;9.48;;;8.63;;
1765;SDS011;880;52.452;8.656;2023-08-30T12:17:54;12.00;;;9.48;;
1765;SDS011;880;52.452;8.656;2023-08-30T12:20:21;10.15;;;9.25;;
1765;SDS011;880;52.452;8.656;2023-08-30T12:22:49;11.25;;;10.25;;
1765;SDS011;880;52.452;8.656;2023-08-30T12:25:21;9.18;;;8.45;;
1765;SDS011;880;52.452;8.656;2023-08-30T12:27:50;10.20;;;9.32;;
1765;SDS011;880;52.452;8.656;2023-08-30T12:30:17;11.20;;;10.30;;
1765;SDS011;880;52.452;8.656;2023-08-30T12:32:45;9.88;;;9.10;;
1765;SDS011;880;52.452;8.656;2023-08-30T12:35:13;10.45;;;9.55;;
1765;SDS011;880;52.452;8.656;2023-08-30T12:37:41;10.85;;;9.73;;
1765;SDS011;880;52.452;8.656;2023-08-30T12:40:09;10.23;;;9.48;;
1765;SDS011;880;52.452;8.656;2023-08-30T12:42:36;9.23;;;8.43;;
1765;SDS011;880;52.452;8.656;2023-08-30T12:45:04;10.75;;;9.65;;
1765;SDS011;880;52.452;8.656;2023-08-30T12:47:33;9.57;;;8.95;;
1765;SDS011;880;52.452;8.656;2023-08-30T12:50:01;9.02;;;8.30;;
1765;SDS011;880;52.452;8.656;2023-08-30T12:52:28;8.88;;;8.20;;
1765;SDS011;880;52.452;8.656;2023-08-30T12:54:55;9.23;;;7.63;;
1765;SDS011;880;52.452;8.656;2023-08-30T12:57:22;9.05;;;8.15;;
1765;SDS011;880;52.452;8.656;2023-08-30T12:59:49;9.20;;;8.35;;
1765;SDS011;880;52.452;8.656;2023-08-30T13:02:16;9.63;;;8.82;;
1765;SDS011;880;52.452;8.656;2023-08-30T13:04:43;9.23;;;8.32;;
1765;SDS011;880;52.452;8.656;2023-08-30T13:07:10;9.82;;;9.00;;
1765;SDS011;880;52.452;8.656;2023-08-30T13:09:37;8.20;;;7.43;;
1765;SDS011;880;52.452;8.656;2023-08-30T13:12:04;8.50;;;7.70;;
1765;SDS011;880;52.452;8.656;2023-08-30T13:14:32;9.10;;;8.02;;
1765;SDS011;880;52.452;8.656;2023-08-30T13:16:59;7.68;;;6.97;;
1765;SDS011;880;52.452;8.656;2023-08-30T13:19:26;7.38;;;6.72;;
1765;SDS011;880;52.452;8.656;2023-08-30T13:21:53;8.20;;;6.88;;
1765;SDS011;880;52.452;8.656;2023-08-30T13:24:21;8.18;;;7.43;;
1765;SDS011;880;52.452;8.656;2023-08-30T13:26:48;10.73;;;7.22;;
1765;SDS011;880;52.452;8.656;2023-08-30T13:29:15;8.98;;;8.07;;
1765;SDS011;880;52.452;8.656;2023-08-30T13:31:42;8.77;;;7.95;;
1765;SDS011;880;52.452;8.656;2023-08-30T13:34:09;9.02;;;7.47;;
1765;SDS011;880;52.452;8.656;2023-08-30T13:36:36;8.82;;;7.72;;
1765;SDS011;880;52.452;8.656;2023-08-30T13:39:05;11.70;;;8.65;;
1765;SDS011;880;52.452;8.656;2023-08-30T13:41:32;9.32;;;8.43;;
1765;SDS011;880;52.452;8.656;2023-08-30T13:44:00;10.40;;;9.35;;
1765;SDS011;880;52.452;8.656;2023-08-30T13:46:28;8.98;;;7.90;;
1765;SDS011;880;52.452;8.656;2023-08-30T13:48:56;8.50;;;7.75;;
1765;SDS011;880;52.452;8.656;2023-08-30T13:51:23;12.63;;;8.50;;
1765;SDS011;880;52.452;8.656;2023-08-30T13:53:52;11.85;;;10.65;;
1765;SDS011;880;52.452;8.656;2023-08-30T13:56:19;10.13;;;9.13;;
1765;SDS011;880;52.452;8.656;2023-08-30T13:58:46;18.70;;;12.15;;
1765;SDS011;880;52.452;8.656;2023-08-30T14:01:13;14.73;;;11.68;;
1765;SDS011;880;52.452;8.656;2023-08-30T14:03:41;12.30;;;11.00;;
1765;SDS011;880;52.452;8.656;2023-08-30T14:06:08;15.32;;;11.77;;
1765;SDS011;880;52.452;8.656;2023-08-30T14:08:35;19.45;;;16.83;;
1765;SDS011;880;52.452;8.656;2023-08-30T14:11:02;21.30;;;15.57;;
1765;SDS011;880;52.452;8.656;2023-08-30T14:13:32;20.17;;;14.52;;
1765;SDS011;880;52.452;8.656;2023-08-30T14:16:00;17.33;;;13.30;;
1765;SDS011;880;52.452;8.656;2023-08-30T14:20:56;8.85;;;7.95;;
1765;SDS011;880;52.452;8.656;2023-08-30T14:23:28;10.52;;;9.45;;
1765;SDS011;880;52.452;8.656;2023-08-30T14:25:59;10.55;;;9.48;;
1765;SDS011;880;52.452;8.656;2023-08-30T14:28:30;9.57;;;8.68;;
1765;SDS011;880;52.452;8.656;2023-08-30T14:30:56;11.93;;;7.93;;
1765;SDS011;880;52.452;8.656;2023-08-30T14:33:23;10.63;;;9.35;;
1765;SDS011;880;52.452;8.656;2023-08-30T14:35:51;8.63;;;7.70;;
1765;SDS011;880;52.452;8.656;2023-08-30T14:38:18;9.48;;;8.57;;
1765;SDS011;880;52.452;8.656;2023-08-30T14:40:58;10.27;;;9.05;;
1765;SDS011;880;52.452;8.656;2023-08-30T14:43:30;11.07;;;9.98;;
1765;SDS011;880;52.452;8.656;2023-08-30T14:45:59;8.63;;;7.90;;
1765;SDS011;880;52.452;8.656;2023-08-30T14:48:36;8.48;;;7.63;;
1765;SDS011;880;52.452;8.656;2023-08-30T14:51:04;9.23;;;7.90;;
1765;SDS011;880;52.452;8.656;2023-08-30T14:53:33;9.02;;;8.15;;
1765;SDS011;880;52.452;8.656;2023-08-30T14:56:00;8.50;;;7.72;;
1765;SDS011;880;52.452;8.656;2023-08-30T14:58:33;10.07;;;9.10;;
1765;SDS011;880;52.452;8.656;2023-08-30T15:01:04;8.68;;;7.78;;
1765;SDS011;880;52.452;8.656;2023-08-30T15:03:31;8.88;;;8.02;;
1765;SDS011;880;52.452;8.656;2023-08-30T15:05:58;11.35;;;10.20;;
1765;SDS011;880;52.452;8.656;2023-08-30T15:08:25;9.50;;;8.05;;
1765;SDS011;880;52.452;8.656;2023-08-30T15:10:53;9.48;;;7.75;;
1765;SDS011;880;52.452;8.656;2023-08-30T15:13:20;7.80;;;7.07;;
1765;SDS011;880;52.452;8.656;2023-08-30T15:15:47;8.27;;;7.57;;
1765;SDS011;880;52.452;8.656;2023-08-30T15:18:14;11.68;;;8.15;;
1765;SDS011;880;52.452;8.656;2023-08-30T15:20:42;8.73;;;7.93;;
1765;SDS011;880;52.452;8.656;2023-08-30T15:23:12;10.10;;;8.68;;
1765;SDS011;880;52.452;8.656;2023-08-30T15:25:44;7.60;;;6.88;;
1765;SDS011;880;52.452;8.656;2023-08-30T15:28:13;7.47;;;6.75;;
1765;SDS011;880;52.452;8.656;2023-08-30T15:30:44;7.82;;;7.13;;
1765;SDS011;880;52.452;8.656;2023-08-30T15:33:13;7.55;;;6.85;;
1765;SDS011;880;52.452;8.656;2023-08-30T15:36:00;7.10;;;6.45;;
1765;SDS011;880;52.452;8.656;2023-08-30T15:38:27;7.60;;;6.88;;
1765;SDS011;880;52.452;8.656;2023-08-30T15:40:54;7.47;;;6.82;;
1765;SDS011;880;52.452;8.656;2023-08-30T15:43:24;7.93;;;6.82;;